Maza, North Dakota
Current Conditions -  °F | °C
As of 1:55 AM on Friday 19 Dec 2014 (Local Time) from K9D7 Reporting Station
Haze Haze  
Wind Chill: 15°   Ceiling: 300
Heat Index: 23°   Visibility: 3mi
Dew Point: 23°   Wind: 7mph
Humidity: 100%   Direction: 170°S
Pressure: 30"   Gusts: NA
Location:  48.4575°N, 99.1015°W
Report Text: K9D7 190755Z AUTO 17006KT 3SM BR OVC003 M05/M05 A3000 RMK AO2
Loading
Personal Weather Stations






























Interactive Weather Map New forecast layout! Learn more

10-Day Weather Forecast

Advertisements
Track Severe Weather on mobile